Boston Ravine, California
Current Conditions -  °F | °C
As of 6:00 AM on Monday 24 Nov 2014 (Local Time) from KGOO Reporting Station
Clear Clear  
Wind Chill: 40°   Ceiling: Unl
Heat Index: 43°   Visibility: 10mi
Dew Point: 23°   Wind: 5mph
Humidity: 46%   Direction: 50°NE
Pressure: 30.34"   Gusts: NA
Location:  39.2183°N, 120.924°W
Report Text: KGOO 241400Z AUTO 05004KT 10SM CLR 06/M05 A3034 RMK AO1
Loading
Personal Weather Stations






























Interactive Weather Map New forecast layout! Learn more

10-Day Weather Forecast

Advertisements
Track Severe Weather on mobile